Portada
METAR-TAF:

METAR-TAF

Aeroports :

Peace River, Alberta, Canadà

latitud: 56-14N, longitud: 117-26W, altitud: 571 m

Observació

L'informe es va fer fa 35 minuts, a les 01:00 UTC
Vent 10 kt del Nord/Nord-Est amb ràfegues de 19 kt
Temperatura 14°C
Humitat 41%
Pressió 1010 hPa
Visibilitat: 24.1 km
Núvols disperses a una alçada de 8000 ft
Núvols disperses a una alçada de 9400 ft
Cel ennuvolat a una alçada de 25000 ft

METAR: CYPE 170100Z 03010G19KT 15SM SCT080 SCT094 BKN250 14/01 A2982 RMK CU3AC1CI4 AC TR SLP112 DENSITY ALT 2400FT

Hora: 19:35 (01:35 UTC)

Pronòstic

L'informe es va fer fa 55 minuts, a les 00:40 UTC
Pronòstic vàlid del 17 a les 01 UTC al 17 a les 13 UTC
Vent 12 kt del Nord-Oest
Visibilitat: 10 km
Cel ennuvolat a una alçada de 8000 ft
A partir de les 17 a les 0700 UTC
Vent 10 kt del Nord/Nord-Oest
Visibilitat: 10 km
Escasses núvols a una alçada de 8000 ft

TAF: CYPE 170040Z 1701/1713 31012KT P6SM BKN080 FM170700 33010KT P6SM FEW080 RMK NXT FCST BY 170700Z

Observacions i pronòstics meteorològics de més de 4000 aeroports (METAR i TAF).

Les estacions disponibles són els punts grocs i vermells al mapa.

Posi el ratolí al punt desitjat per veure el nom de l'estació.

Feu clic per veure les observacions i els pronòstics meteorològics.

Per canviar el mapa: feu clic els botons verds amb una creu de color negre per apropar; al botó verd amb un guió per allunyar la imatge; o en les fletxes verdes per a mapes adjacents.


METAR-TAF: